Undaunted — WDB8103 — position and weather

sailwx.info

Track history (hours):
 
Tides and Currents Weather Stations Pressure Air Temp Water Temp Dewpoint Dewpoint Depression Visibility Wind Speed Wind Dir Waves Ship Positions

Undaunted

Owner: PERE MARQUETTE SHIPPING COMPANY, LUDINGTON, MI. More information available from US FCC via Universal Licensing System and Coast Guard Vessel Documentation Center.

Last reported at 2017-Dec-27 20:02 UTC. Time now 2018-Jan-20 15:33 UTC.
Position N 45°23' W 086°05'.
Warning: this ship's position is 23 days out of date.

Length 24 m; draft 6 m.

Type: Cargo ship. MMSI: 366780000.

Date/timePositionNaut miles runAvg speedWind from/ knotsBaromVisibWave heightAir tempDewpointWater temp
2017-Dec-27 20:02N 45°23' W 086°05'11 9.7
2017-Dec-27 18:56N 45°33' W 085°59'4 9.7
2017-Dec-27 18:30N 45°32' W 085°53'5 9.5
2017-Dec-27 18:00N 45°32' W 085°47'5 9.3
2017-Dec-27 17:30N 45°31' W 085°40'5 9.3
2017-Dec-27 17:00N 45°31' W 085°33'510.1
2017-Dec-27 16:30N 45°34' W 085°28'510.2
2017-Dec-27 16:00N 45°37' W 085°22'510.3
2017-Dec-27 15:30N 45°41' W 085°17'510.3
2017-Dec-27 15:00N 45°44' W 085°11'5 9.8
2017-Dec-27 14:30N 45°49' W 085°09'5 9.7
2017-Dec-27 14:00N 45°50' W 085°02'510.8
2017-Dec-27 13:30N 45°49' W 084°54'5 9.7
2017-Dec-27 13:00N 45°49' W 084°47'5 9.4
2017-Dec-27 12:30N 45°51' W 084°41'4 7.6
2017-Dec-27 12:00N 45°54' W 084°43'0 0.0
2017-Dec-27 11:26N 45°54' W 084°43'0 0.0
2017-Dec-27 10:56N 45°54' W 084°43'0 0.0
2017-Dec-27 10:26N 45°54' W 084°43'0 0.0
2017-Dec-27 09:56N 45°54' W 084°43'0 0.1
2017-Dec-27 09:26N 45°54' W 084°43'0 0.1
2017-Dec-27 08:32N 45°54' W 084°43'0 0.0
2017-Dec-27 08:26N 45°54' W 084°43'0 0.0
2017-Dec-27 07:56N 45°54' W 084°43'0 0.1
2017-Dec-27 07:14N 45°54' W 084°43'0 0.0
2017-Dec-27 06:56N 45°54' W 084°43'0 0.0
2017-Dec-27 04:44N 45°54' W 084°43'0 0.0
2017-Dec-26 23:50N 45°54' W 084°43'0 0.0
2017-Dec-26 23:26N 45°54' W 084°43'0 0.0
2017-Dec-26 20:44N 45°54' W 084°43'0 0.0
2017-Dec-26 14:44N 45°54' W 084°43'0 0.0
2017-Dec-26 07:32N 45°54' W 084°43'0 0.0
2017-Dec-26 03:02N 45°54' W 084°43'0 0.0
2017-Dec-25 16:44N 45°54' W 084°43'0 1.9
2017-Dec-25 16:30N 45°54' W 084°42'5 9.3
2017-Dec-25 15:59N 45°50' W 084°38'4 8.6
2017-Dec-25 15:29N 45°46' W 084°34'27 8.7
2017-Dec-25 12:22N 45°33' W 084°01'4 9.8
2017-Dec-25 12:00N 45°31' W 083°56'5 9.6
2017-Dec-25 11:30N 45°29' W 083°50'5 9.5
2017-Dec-25 11:00N 45°27' W 083°44'5 9.4
2017-Dec-25 10:30N 45°25' W 083°38'5 9.4
2017-Dec-25 10:00N 45°23' W 083°32'5 0.3
2017-Dec-24 16:57N 45°26' W 083°37'0 0.3
2017-Dec-24 16:28N 45°26' W 083°37'4 8.6
2017-Dec-24 15:57N 45°28' W 083°43'4 8.6
2017-Dec-24 15:30N 45°30' W 083°48'25 8.8
2017-Dec-24 12:39N 45°41' W 084°19'1 8.8
2017-Dec-24 12:30N 45°41' W 084°21'4 8.8
2017-Dec-24 12:00N 45°42' W 084°27'4 8.8
2017-Dec-24 11:30N 45°44' W 084°33'4 8.7
2017-Dec-24 11:00N 45°47' W 084°38'4 8.8
2017-Dec-24 10:30N 45°49' W 084°44'5 9.0
2017-Dec-24 10:00N 45°50' W 084°50'4 8.9
2017-Dec-24 09:30N 45°50' W 084°56'4 8.9
2017-Dec-24 09:00N 45°51' W 085°03'4 8.9
2017-Dec-24 08:30N 45°51' W 085°09'4 9.0
2017-Dec-24 08:01N 45°52' W 085°15'5 9.0
2017-Dec-24 07:30N 45°52' W 085°22'4 9.2
2017-Dec-24 07:00N 45°53' W 085°28'5 9.3
2017-Dec-24 06:30N 45°53' W 085°35'5 9.3
2017-Dec-24 05:57N 45°53' W 085°42'  
2017-Dec-20 15:07N 45°45' W 085°57'1 8.2
2017-Dec-20 15:00N 45°45' W 085°56'4 8.2
2017-Dec-20 14:30N 45°47' W 085°51'4 8.1
2017-Dec-20 14:00N 45°49' W 085°45'4 8.1
2017-Dec-20 13:30N 45°51' W 085°40'4 7.9
2017-Dec-20 13:00N 45°53' W 085°36'4 7.4
2017-Dec-20 12:30N 45°53' W 085°30'4 7.7
2017-Dec-20 12:00N 45°53' W 085°25'4 7.7
2017-Dec-20 11:30N 45°52' W 085°19'4 7.6
2017-Dec-20 11:00N 45°52' W 085°14'4 7.5
2017-Dec-20 10:30N 45°51' W 085°08'4 7.7
2017-Dec-20 10:01N 45°51' W 085°03'4 7.4
2017-Dec-20 09:30N 45°50' W 084°58'4 7.2
2017-Dec-20 09:01N 45°50' W 084°53'4 7.1
2017-Dec-20 08:30N 45°49' W 084°48'4 6.8
2017-Dec-20 07:54N 45°49' W 084°42'3 7.5
2017-Dec-20 07:30N 45°52' W 084°42'2 0.1
2017-Dec-19 07:09N 45°54' W 084°43'0 0.0
2017-Dec-19 06:57N 45°54' W 084°43'0 0.0
2017-Dec-19 06:27N 45°54' W 084°43'0 0.0
2017-Dec-19 05:58N 45°54' W 084°43'0 0.0
2017-Dec-19 05:28N 45°54' W 084°43'0 0.0
2017-Dec-19 04:58N 45°54' W 084°43'0 0.0
2017-Dec-19 04:28N 45°54' W 084°43'0 0.0
2017-Dec-19 03:51N 45°54' W 084°43'0 0.0
2017-Dec-19 03:22N 45°54' W 084°43'0 0.0
2017-Dec-19 02:57N 45°54' W 084°43'0 0.0
2017-Dec-19 02:28N 45°54' W 084°43'0 0.0
2017-Dec-19 01:52N 45°54' W 084°43'0 0.0
2017-Dec-19 01:28N 45°54' W 084°43'0 0.0
2017-Dec-19 00:34N 45°54' W 084°43'0 0.0
2017-Dec-19 00:22N 45°54' W 084°43'0 0.0
2017-Dec-18 23:45N 45°54' W 084°43'0 0.0
2017-Dec-18 23:22N 45°54' W 084°43'0 0.0
2017-Dec-18 21:28N 45°54' W 084°43'0 0.0
2017-Dec-18 20:45N 45°54' W 084°43'0 0.0
2017-Dec-18 20:27N 45°54' W 084°43'0 0.0
2017-Dec-18 19:58N 45°54' W 084°43'0 0.0
2017-Dec-18 19:28N 45°54' W 084°43'0 0.0
2017-Dec-18 18:52N 45°54' W 084°43'0 0.0
2017-Dec-18 17:39N 45°54' W 084°43'0 0.0
2017-Dec-18 17:27N 45°54' W 084°43'0 0.0
2017-Dec-18 16:57N 45°54' W 084°43'0 0.0
2017-Dec-18 14:57N 45°54' W 084°43'0 0.0
2017-Dec-18 13:39N 45°54' W 084°43'0 0.0
2017-Dec-18 11:39N 45°54' W 084°43'0 0.1
2017-Dec-18 11:27N 45°54' W 084°43'0 0.0
2017-Dec-18 10:27N 45°54' W 084°43'0 0.0
2017-Dec-18 09:57N 45°54' W 084°43'  
Track history (hours):
 
Tides and Currents Weather Stations Pressure Air Temp Water Temp Dewpoint Dewpoint Depression Visibility Wind Speed Wind Dir Waves Ship Positions

Undaunted

Owner: PERE MARQUETTE SHIPPING COMPANY, LUDINGTON, MI. More information available from US FCC via Universal Licensing System and Coast Guard Vessel Documentation Center.

Last reported at 2017-Dec-27 20:02 UTC. Time now 2018-Jan-20 15:33 UTC.
Position N 45°23' W 086°05'.
Warning: this ship's position is 23 days out of date.

Length 24 m; draft 6 m.

Type: Cargo ship. MMSI: 366780000.

Date/timePositionNaut miles runAvg speedWind from/ knotsBaromVisibWave heightAir tempDewpointWater temp
2017-Dec-27 20:02N 45°23' W 086°05'11 9.7
2017-Dec-27 18:56N 45°33' W 085°59'4 9.7
2017-Dec-27 18:30N 45°32' W 085°53'5 9.5
2017-Dec-27 18:00N 45°32' W 085°47'5 9.3
2017-Dec-27 17:30N 45°31' W 085°40'5 9.3
2017-Dec-27 17:00N 45°31' W 085°33'510.1
2017-Dec-27 16:30N 45°34' W 085°28'510.2
2017-Dec-27 16:00N 45°37' W 085°22'510.3
2017-Dec-27 15:30N 45°41' W 085°17'510.3
2017-Dec-27 15:00N 45°44' W 085°11'5 9.8
2017-Dec-27 14:30N 45°49' W 085°09'5 9.7
2017-Dec-27 14:00N 45°50' W 085°02'510.8
2017-Dec-27 13:30N 45°49' W 084°54'5 9.7
2017-Dec-27 13:00N 45°49' W 084°47'5 9.4
2017-Dec-27 12:30N 45°51' W 084°41'4 7.6
2017-Dec-27 12:00N 45°54' W 084°43'0 0.0
2017-Dec-27 11:26N 45°54' W 084°43'0 0.0
2017-Dec-27 10:56N 45°54' W 084°43'0 0.0
2017-Dec-27 10:26N 45°54' W 084°43'0 0.0
2017-Dec-27 09:56N 45°54' W 084°43'0 0.1
2017-Dec-27 09:26N 45°54' W 084°43'0 0.1
2017-Dec-27 08:32N 45°54' W 084°43'0 0.0
2017-Dec-27 08:26N 45°54' W 084°43'0 0.0
2017-Dec-27 07:56N 45°54' W 084°43'0 0.1
2017-Dec-27 07:14N 45°54' W 084°43'0 0.0
2017-Dec-27 06:56N 45°54' W 084°43'0 0.0
2017-Dec-27 04:44N 45°54' W 084°43'0 0.0
2017-Dec-26 23:50N 45°54' W 084°43'0 0.0
2017-Dec-26 23:26N 45°54' W 084°43'0 0.0
2017-Dec-26 20:44N 45°54' W 084°43'0 0.0
2017-Dec-26 14:44N 45°54' W 084°43'0 0.0
2017-Dec-26 07:32N 45°54' W 084°43'0 0.0
2017-Dec-26 03:02N 45°54' W 084°43'0 0.0
2017-Dec-25 16:44N 45°54' W 084°43'0 1.9
2017-Dec-25 16:30N 45°54' W 084°42'5 9.3
2017-Dec-25 15:59N 45°50' W 084°38'4 8.6
2017-Dec-25 15:29N 45°46' W 084°34'27 8.7
2017-Dec-25 12:22N 45°33' W 084°01'4 9.8
2017-Dec-25 12:00N 45°31' W 083°56'5 9.6
2017-Dec-25 11:30N 45°29' W 083°50'5 9.5
2017-Dec-25 11:00N 45°27' W 083°44'5 9.4
2017-Dec-25 10:30N 45°25' W 083°38'5 9.4
2017-Dec-25 10:00N 45°23' W 083°32'5 0.3
2017-Dec-24 16:57N 45°26' W 083°37'0 0.3
2017-Dec-24 16:28N 45°26' W 083°37'4 8.6
2017-Dec-24 15:57N 45°28' W 083°43'4 8.6
2017-Dec-24 15:30N 45°30' W 083°48'25 8.8
2017-Dec-24 12:39N 45°41' W 084°19'1 8.8
2017-Dec-24 12:30N 45°41' W 084°21'4 8.8
2017-Dec-24 12:00N 45°42' W 084°27'4 8.8
2017-Dec-24 11:30N 45°44' W 084°33'4 8.7
2017-Dec-24 11:00N 45°47' W 084°38'4 8.8
2017-Dec-24 10:30N 45°49' W 084°44'5 9.0
2017-Dec-24 10:00N 45°50' W 084°50'4 8.9
2017-Dec-24 09:30N 45°50' W 084°56'4 8.9
2017-Dec-24 09:00N 45°51' W 085°03'4 8.9
2017-Dec-24 08:30N 45°51' W 085°09'4 9.0
2017-Dec-24 08:01N 45°52' W 085°15'5 9.0
2017-Dec-24 07:30N 45°52' W 085°22'4 9.2
2017-Dec-24 07:00N 45°53' W 085°28'5 9.3
2017-Dec-24 06:30N 45°53' W 085°35'5 9.3
2017-Dec-24 05:57N 45°53' W 085°42'  
2017-Dec-20 15:07N 45°45' W 085°57'1 8.2
2017-Dec-20 15:00N 45°45' W 085°56'4 8.2
2017-Dec-20 14:30N 45°47' W 085°51'4 8.1
2017-Dec-20 14:00N 45°49' W 085°45'4 8.1
2017-Dec-20 13:30N 45°51' W 085°40'4 7.9
2017-Dec-20 13:00N 45°53' W 085°36'4 7.4
2017-Dec-20 12:30N 45°53' W 085°30'4 7.7
2017-Dec-20 12:00N 45°53' W 085°25'4 7.7
2017-Dec-20 11:30N 45°52' W 085°19'4 7.6
2017-Dec-20 11:00N 45°52' W 085°14'4 7.5
2017-Dec-20 10:30N 45°51' W 085°08'4 7.7
2017-Dec-20 10:01N 45°51' W 085°03'4 7.4
2017-Dec-20 09:30N 45°50' W 084°58'4 7.2
2017-Dec-20 09:01N 45°50' W 084°53'4 7.1
2017-Dec-20 08:30N 45°49' W 084°48'4 6.8
2017-Dec-20 07:54N 45°49' W 084°42'3 7.5
2017-Dec-20 07:30N 45°52' W 084°42'2 0.1
2017-Dec-19 07:09N 45°54' W 084°43'0 0.0
2017-Dec-19 06:57N 45°54' W 084°43'0 0.0
2017-Dec-19 06:27N 45°54' W 084°43'0 0.0
2017-Dec-19 05:58N 45°54' W 084°43'0 0.0
2017-Dec-19 05:28N 45°54' W 084°43'0 0.0
2017-Dec-19 04:58N 45°54' W 084°43'0 0.0
2017-Dec-19 04:28N 45°54' W 084°43'0 0.0
2017-Dec-19 03:51N 45°54' W 084°43'0 0.0
2017-Dec-19 03:22N 45°54' W 084°43'0 0.0
2017-Dec-19 02:57N 45°54' W 084°43'0 0.0
2017-Dec-19 02:28N 45°54' W 084°43'0 0.0
2017-Dec-19 01:52N 45°54' W 084°43'0 0.0
2017-Dec-19 01:28N 45°54' W 084°43'0 0.0
2017-Dec-19 00:34N 45°54' W 084°43'0 0.0
2017-Dec-19 00:22N 45°54' W 084°43'0 0.0
2017-Dec-18 23:45N 45°54' W 084°43'0 0.0
2017-Dec-18 23:22N 45°54' W 084°43'0 0.0
2017-Dec-18 21:28N 45°54' W 084°43'0 0.0
2017-Dec-18 20:45N 45°54' W 084°43'0 0.0
2017-Dec-18 20:27N 45°54' W 084°43'0 0.0
2017-Dec-18 19:58N 45°54' W 084°43'0 0.0
2017-Dec-18 19:28N 45°54' W 084°43'0 0.0
2017-Dec-18 18:52N 45°54' W 084°43'0 0.0
2017-Dec-18 17:39N 45°54' W 084°43'0 0.0
2017-Dec-18 17:27N 45°54' W 084°43'0 0.0
2017-Dec-18 16:57N 45°54' W 084°43'0 0.0
2017-Dec-18 14:57N 45°54' W 084°43'0 0.0
2017-Dec-18 13:39N 45°54' W 084°43'0 0.0
2017-Dec-18 11:39N 45°54' W 084°43'0 0.1
2017-Dec-18 11:27N 45°54' W 084°43'0 0.0
2017-Dec-18 10:27N 45°54' W 084°43'0 0.0
2017-Dec-18 09:57N 45°54' W 084°43'  

Dump ship's entire track history